createdAt,value
2023-01-03T00:03:17.049Z,101622.00
2023-01-03T00:07:34.213Z,101629.63
2023-01-03T00:11:57.214Z,101616.34
2023-01-03T00:16:00.436Z,101614.28
2023-01-03T00:20:05.431Z,101624.47
2023-01-03T00:24:09.770Z,101625.09
2023-01-03T00:28:12.830Z,101635.94
2023-01-03T00:32:16.988Z,101635.88
2023-01-03T00:36:21.461Z,101635.84
2023-01-03T00:40:24.509Z,101639.91
2023-01-03T00:44:27.652Z,101645.81
2023-01-03T00:48:31.122Z,101653.81
2023-01-03T00:52:35.579Z,101637.78
2023-01-03T00:56:40.297Z,101644.53
2023-01-03T01:00:43.339Z,101651.75
2023-01-03T01:04:47.539Z,101655.25
2023-01-03T01:08:54.061Z,101661.13
2023-01-03T01:12:57.256Z,101655.69
2023-01-03T01:17:01.990Z,101665.28
2023-01-03T01:21:06.772Z,101668.56
2023-01-03T01:25:11.268Z,101671.75
2023-01-03T01:29:16.051Z,101679.22
2023-01-03T01:33:19.124Z,101677.81
2023-01-03T01:37:22.138Z,101689.00
2023-01-03T01:41:45.542Z,101691.09
2023-01-03T01:45:48.719Z,101698.34
2023-01-03T01:49:55.380Z,101700.50
2023-01-03T01:54:01.814Z,101715.53
2023-01-03T01:58:07.700Z,101715.25
2023-01-03T02:02:11.929Z,101720.16
2023-01-03T02:06:18.086Z,101720.63
2023-01-03T02:10:31.904Z,101715.97
2023-01-03T02:14:45.238Z,101717.28
2023-01-03T02:18:55.887Z,101719.16
2023-01-03T02:23:34.028Z,101725.94
2023-01-03T02:28:05.275Z,101728.34
2023-01-03T02:32:15.683Z,101718.47
2023-01-03T02:36:25.720Z,101723.19
2023-01-03T02:40:36.438Z,101726.63
2023-01-03T02:44:46.252Z,101725.41
2023-01-03T02:48:56.935Z,101727.59
2023-01-03T02:53:03.909Z,101726.47
2023-01-03T02:57:12.336Z,101720.88
2023-01-03T03:01:19.422Z,101730.72
2023-01-03T03:05:28.975Z,101720.50
2023-01-03T03:09:32.476Z,101731.91
2023-01-03T03:13:38.899Z,101741.03
2023-01-03T03:17:43.396Z,101729.38
2023-01-03T03:22:01.872Z,101732.97
2023-01-03T03:26:10.569Z,101731.66
2023-01-03T03:30:17.959Z,101734.66
2023-01-03T03:34:25.881Z,101729.66
2023-01-03T03:38:35.883Z,101721.50
2023-01-03T03:43:02.873Z,101722.50
2023-01-03T03:47:14.494Z,101719.69
2023-01-03T03:51:21.252Z,101729.13
2023-01-03T03:55:35.024Z,101739.41
2023-01-03T03:59:39.880Z,101737.56
2023-01-03T04:03:45.418Z,101732.25
2023-01-03T04:07:48.705Z,101732.56
2023-01-03T04:11:53.084Z,101726.84
2023-01-03T04:15:56.447Z,101729.13
2023-01-03T04:19:59.567Z,101730.66
2023-01-03T04:24:02.585Z,101725.66
2023-01-03T04:28:07.053Z,101725.22
2023-01-03T04:32:10.231Z,101719.16
2023-01-03T04:36:13.689Z,101721.50
2023-01-03T04:40:16.871Z,101727.94
2023-01-03T04:44:21.265Z,101731.44
2023-01-03T04:48:24.467Z,101732.75
2023-01-03T04:52:27.515Z,101730.34
2023-01-03T04:56:32.714Z,101727.66
2023-01-03T05:00:37.096Z,101728.47
2023-01-03T05:04:40.201Z,101725.94
2023-01-03T05:08:46.388Z,101725.31
2023-01-03T05:12:59.977Z,101724.25
2023-01-03T05:17:04.588Z,101722.59
2023-01-03T05:21:26.308Z,101707.50
2023-01-03T05:25:47.103Z,101724.59
2023-01-03T05:29:52.193Z,101721.69
2023-01-03T05:33:56.993Z,101711.69
2023-01-03T05:37:59.995Z,101713.16
2023-01-03T05:42:03.061Z,101721.50
2023-01-03T05:46:07.125Z,101722.69
2023-01-03T05:50:11.629Z,101722.97
2023-01-03T05:54:16.241Z,101720.69
2023-01-03T05:58:19.273Z,101721.00
2023-01-03T06:02:22.379Z,101713.84
2023-01-03T06:06:26.947Z,101722.63
2023-01-03T06:10:30.430Z,101727.88
2023-01-03T06:14:33.822Z,101727.31
2023-01-03T06:18:37.492Z,101721.16
2023-01-03T06:22:41.881Z,101720.56
2023-01-03T06:26:44.911Z,101714.81
2023-01-03T06:30:48.006Z,101706.59
2023-01-03T06:34:51.099Z,101709.28
2023-01-03T06:38:55.831Z,101704.81
2023-01-03T06:42:59.439Z,101700.19
2023-01-03T06:47:19.855Z,101710.44
2023-01-03T06:51:40.674Z,101711.03
2023-01-03T06:55:52.707Z,101704.44
2023-01-03T06:59:59.308Z,101698.16
2023-01-03T07:04:03.699Z,101702.53
2023-01-03T07:08:06.909Z,101702.41
2023-01-03T07:12:25.192Z,101707.56
2023-01-03T07:16:30.032Z,101701.00
2023-01-03T07:20:33.115Z,101708.28
2023-01-03T07:24:36.203Z,101708.41
2023-01-03T07:28:40.901Z,101718.09
2023-01-03T07:32:43.972Z,101714.34
2023-01-03T07:36:46.999Z,101727.13
2023-01-03T07:40:50.006Z,101728.84
2023-01-03T07:44:54.395Z,101719.88
2023-01-03T07:49:07.864Z,101714.84
2023-01-03T07:53:17.027Z,101721.59
2023-01-03T07:57:20.231Z,101714.75
2023-01-03T08:01:26.109Z,101724.31
2023-01-03T08:05:29.293Z,101722.81
2023-01-03T08:09:52.247Z,101728.00
2023-01-03T08:13:55.237Z,101741.91
2023-01-03T08:17:59.669Z,101738.09
2023-01-03T08:22:02.789Z,101749.09
2023-01-03T08:26:07.538Z,101752.66
2023-01-03T08:30:11.844Z,101743.66
2023-01-03T08:34:25.148Z,101750.69
2023-01-03T08:38:36.643Z,101754.03
2023-01-03T08:42:39.901Z,101751.44
2023-01-03T08:46:46.756Z,101750.25
2023-01-03T08:50:51.412Z,101749.66
2023-01-03T08:54:54.568Z,101741.47
2023-01-03T08:58:58.709Z,101737.75
2023-01-03T09:03:01.928Z,101733.88
2023-01-03T09:07:06.773Z,101733.06
2023-01-03T09:11:11.045Z,101734.13
2023-01-03T09:15:14.163Z,101734.78
2023-01-03T09:19:17.467Z,101739.50
2023-01-03T09:23:22.066Z,101737.25
2023-01-03T09:27:25.078Z,101744.38
2023-01-03T09:31:30.043Z,101754.75
2023-01-03T09:35:34.262Z,101746.22
2023-01-03T09:39:40.821Z,101736.06
2023-01-03T09:43:46.692Z,101738.78
2023-01-03T09:47:49.935Z,101737.75
2023-01-03T09:52:11.596Z,101738.44
2023-01-03T09:56:33.873Z,101734.59
2023-01-03T10:00:58.888Z,101724.44
2023-01-03T10:05:19.486Z,101713.66
2023-01-03T10:09:33.816Z,101708.88
2023-01-03T10:13:53.543Z,101727.53
2023-01-03T10:18:08.471Z,101729.44
2023-01-03T10:22:15.102Z,101740.56
2023-01-03T10:26:20.054Z,101751.66
2023-01-03T10:30:34.923Z,101744.50
2023-01-03T10:34:38.887Z,101741.78
2023-01-03T10:38:47.979Z,101746.38
2023-01-03T10:42:56.440Z,101739.03
2023-01-03T10:47:11.065Z,101738.53
2023-01-03T10:51:29.790Z,101742.09
2023-01-03T10:55:36.183Z,101748.91
2023-01-03T10:59:50.789Z,101729.25
2023-01-03T11:04:20.020Z,101731.63
2023-01-03T11:08:24.622Z,101726.09
2023-01-03T11:12:30.583Z,101721.84
2023-01-03T11:16:33.932Z,101729.50
2023-01-03T11:20:44.957Z,101722.63
2023-01-03T11:24:58.487Z,101716.28
2023-01-03T11:29:20.066Z,101720.69
2023-01-03T11:33:36.989Z,101712.34
2023-01-03T11:37:53.437Z,101711.19
2023-01-03T11:42:09.949Z,101704.28
2023-01-03T11:46:23.871Z,101711.97
2023-01-03T11:50:36.934Z,101704.97
2023-01-03T11:55:05.230Z,101704.91
2023-01-03T11:59:34.843Z,101690.84
2023-01-03T12:03:55.587Z,101682.28
2023-01-03T12:08:06.277Z,101681.97
2023-01-03T12:12:25.975Z,101676.22
2023-01-03T12:16:34.374Z,101666.66
2023-01-03T12:20:40.167Z,101656.91
2023-01-03T12:24:49.389Z,101651.72
2023-01-03T12:29:01.259Z,101648.84
2023-01-03T12:33:14.844Z,101652.41
2023-01-03T12:37:21.996Z,101653.94
2023-01-03T12:41:29.969Z,101649.63
2023-01-03T12:45:44.473Z,101651.31
2023-01-03T12:49:54.713Z,101643.16
2023-01-03T12:54:16.264Z,101618.81
2023-01-03T12:58:39.249Z,101627.50
2023-01-03T13:02:51.502Z,101634.75
2023-01-03T13:07:04.887Z,101648.06
2023-01-03T13:11:16.631Z,101646.88
2023-01-03T13:15:36.025Z,101647.56
2023-01-03T13:19:56.759Z,101620.06
2023-01-03T13:24:01.034Z,101613.41
2023-01-03T13:28:33.218Z,101598.63
2023-01-03T13:32:49.081Z,101599.81
2023-01-03T13:37:18.341Z,101582.88
2023-01-03T13:41:34.088Z,101579.59
2023-01-03T13:45:59.756Z,101590.03
2023-01-03T13:50:03.822Z,101600.19
2023-01-03T13:54:35.300Z,101598.50
2023-01-03T13:58:44.122Z,101599.84
2023-01-03T14:03:10.144Z,101605.97
2023-01-03T14:07:51.933Z,101606.78
2023-01-03T14:12:23.557Z,101606.13
2023-01-03T14:16:28.758Z,101606.53
2023-01-03T14:20:37.933Z,101611.34
2023-01-03T14:24:49.568Z,101611.25
2023-01-03T14:28:56.134Z,101598.75
2023-01-03T14:32:59.895Z,101598.06
2023-01-03T14:37:05.287Z,101602.00
2023-01-03T14:41:27.273Z,101594.53
2023-01-03T14:45:31.851Z,101595.72
2023-01-03T14:49:43.985Z,101607.59
2023-01-03T14:53:47.449Z,101611.00
2023-01-03T14:57:52.685Z,101600.47
2023-01-03T15:01:57.377Z,101597.09
2023-01-03T15:06:01.712Z,101608.19
2023-01-03T15:10:18.548Z,101620.06
2023-01-03T15:14:22.954Z,101616.59
2023-01-03T15:18:30.618Z,101615.50
2023-01-03T15:22:40.404Z,101618.25
2023-01-03T15:26:46.273Z,101628.88
2023-01-03T15:30:50.021Z,101627.91
2023-01-03T15:34:54.673Z,101612.91
2023-01-03T15:38:58.853Z,101633.09
2023-01-03T15:43:22.179Z,101636.31
2023-01-03T15:47:30.768Z,101629.00
2023-01-03T15:51:35.305Z,101633.94
2023-01-03T15:55:38.407Z,101631.06
2023-01-03T15:59:43.798Z,101631.38
2023-01-03T16:03:48.731Z,101635.28
2023-01-03T16:07:53.173Z,101639.22
2023-01-03T16:11:59.581Z,101627.63
2023-01-03T16:16:03.153Z,101632.78
2023-01-03T16:20:07.072Z,101626.09
2023-01-03T16:24:16.434Z,101631.72
2023-01-03T16:28:19.488Z,101631.06
2023-01-03T16:32:24.886Z,101634.09
2023-01-03T16:36:32.485Z,101622.84
2023-01-03T16:40:37.130Z,101624.56
2023-01-03T16:44:42.460Z,101629.00
2023-01-03T16:48:47.954Z,101618.91
2023-01-03T16:52:55.619Z,101616.06
2023-01-03T16:57:00.245Z,101607.34
2023-01-03T17:01:03.337Z,101618.25
2023-01-03T17:05:06.950Z,101611.25
2023-01-03T17:09:16.298Z,101620.47
2023-01-03T17:13:31.069Z,101615.34
2023-01-03T17:17:34.493Z,101606.50
2023-01-03T17:21:38.127Z,101608.19
2023-01-03T17:27:13.849Z,101603.94
2023-01-03T17:31:20.535Z,101597.44
2023-01-03T17:35:24.127Z,101593.91
2023-01-03T17:39:28.879Z,101586.41
2023-01-03T17:43:32.798Z,101593.91
2023-01-03T17:47:57.919Z,101594.41
2023-01-03T17:52:03.442Z,101597.63
2023-01-03T17:56:07.661Z,101584.34
2023-01-03T18:00:17.940Z,101579.72
2023-01-03T18:04:30.220Z,101575.16
2023-01-03T18:08:43.113Z,101578.69
2023-01-03T18:12:46.798Z,101578.22
2023-01-03T18:16:55.105Z,101570.72
2023-01-03T18:21:00.801Z,101578.56
2023-01-03T18:25:04.482Z,101561.53
2023-01-03T18:29:08.664Z,101559.47
2023-01-03T18:33:12.096Z,101563.19
2023-01-03T18:37:20.532Z,101562.88
2023-01-03T18:41:27.391Z,101553.31
2023-01-03T18:45:30.890Z,101544.28
2023-01-03T18:49:34.405Z,101544.13
2023-01-03T18:53:39.490Z,101539.69
2023-01-03T18:57:43.041Z,101525.19
2023-01-03T19:01:46.942Z,101508.16
2023-01-03T19:05:51.297Z,101496.72
2023-01-03T19:09:56.169Z,101495.03
2023-01-03T19:14:02.591Z,101494.84
2023-01-03T19:18:06.268Z,101490.06
2023-01-03T19:22:24.268Z,101478.66
2023-01-03T19:26:33.054Z,101476.59
2023-01-03T19:30:39.037Z,101467.06
2023-01-03T19:34:42.493Z,101464.28
2023-01-03T19:38:45.899Z,101465.81
2023-01-03T19:42:53.677Z,101468.03
2023-01-03T19:46:57.517Z,101477.28
2023-01-03T19:51:01.102Z,101473.56
2023-01-03T19:55:05.237Z,101477.66
2023-01-03T19:59:24.531Z,101478.00
2023-01-03T20:03:31.816Z,101472.91
2023-01-03T20:07:35.394Z,101471.19
2023-01-03T20:11:39.101Z,101462.31
2023-01-03T20:15:45.464Z,101438.78
2023-01-03T20:19:49.411Z,101430.41
2023-01-03T20:23:55.647Z,101424.94
2023-01-03T20:28:00.877Z,101416.59
2023-01-03T20:32:06.258Z,101409.47
2023-01-03T20:36:22.636Z,101407.47
2023-01-03T20:40:34.015Z,101415.38
2023-01-03T20:44:37.552Z,101412.50
2023-01-03T20:48:42.488Z,101410.94
2023-01-03T20:52:46.520Z,101406.72
2023-01-03T20:56:49.965Z,101397.47
2023-01-03T21:00:59.897Z,101392.69
2023-01-03T21:05:09.579Z,101400.78
2023-01-03T21:09:14.313Z,101391.53
2023-01-03T21:13:18.146Z,101385.03
2023-01-03T21:17:21.671Z,101375.66
2023-01-03T21:21:27.156Z,101355.28
2023-01-03T21:25:32.950Z,101364.50
2023-01-03T21:29:36.330Z,101357.19
2023-01-03T21:33:39.690Z,101358.06
2023-01-03T21:37:45.243Z,101346.56
2023-01-03T21:42:06.215Z,101344.38
2023-01-03T21:46:09.831Z,101335.72
2023-01-03T21:50:13.414Z,101339.78
2023-01-03T21:54:19.515Z,101322.91
2023-01-03T21:58:24.357Z,101325.94
2023-01-03T22:02:41.818Z,101310.28
2023-01-03T22:06:45.407Z,101309.31
2023-01-03T22:10:51.071Z,101316.59
2023-01-03T22:14:54.461Z,101303.78
2023-01-03T22:18:57.664Z,101293.19
2023-01-03T22:23:00.855Z,101298.84
2023-01-03T22:27:05.537Z,101313.91
2023-01-03T22:31:12.812Z,101309.84
2023-01-03T22:35:18.842Z,101298.41
2023-01-03T22:39:23.886Z,101290.69
2023-01-03T22:43:28.852Z,101301.53
2023-01-03T22:47:31.952Z,101286.56
2023-01-03T22:51:34.925Z,101279.53
2023-01-03T22:55:41.838Z,101272.47
2023-01-03T22:59:46.555Z,101267.28
2023-01-03T23:03:50.211Z,101260.72
2023-01-03T23:07:53.663Z,101262.03
2023-01-03T23:12:14.359Z,101240.94
2023-01-03T23:16:18.941Z,101263.97
2023-01-03T23:20:22.341Z,101234.72
2023-01-03T23:24:25.572Z,101232.66
2023-01-03T23:28:29.108Z,101226.44
2023-01-03T23:32:34.491Z,101202.50
2023-01-03T23:36:37.576Z,101183.25
2023-01-03T23:40:40.842Z,101187.03
2023-01-03T23:44:43.927Z,101166.09
2023-01-03T23:48:49.363Z,101165.44
2023-01-03T23:52:52.776Z,101164.78
2023-01-03T23:56:56.219Z,101146.72
